Time;durP1;ratioP1;P1;durP2;ratioP2;P2;SDS_P1;SDS_P2;PMS_P1;PMS_P2;Temp;Humidity;BMP_temperature;BMP_pressure;BME280_temperature;BME280_humidity;BME280_pressure;Samples;Min_cycle;Max_cycle;Signal;HPM_P1;HPM_P2
2024/03/28 00:01:20;;;;;;;26.50;19.52;;;;;;;8.10;100.00;98560.75;10091493;28;20038;-72
2024/03/28 00:06:16;;;;;;;26.35;19.17;;;;;;;8.06;100.00;98557.16;10088820;28;20130;-72
2024/03/28 00:11:12;;;;;;;31.63;21.05;;;;;;;7.95;100.00;98542.50;10100793;28;20051;-72
2024/03/28 00:16:07;;;;;;;29.27;19.65;;;;;;;7.87;100.00;98538.84;10067788;28;20043;-71
2024/03/28 00:21:03;;;;;;;26.95;20.48;;;;;;;7.83;100.00;98529.03;10088265;28;20642;-72
2024/03/28 00:25:59;;;;;;;28.13;20.15;;;;;;;7.94;100.00;98521.91;10085771;28;20078;-72
2024/03/28 00:30:55;;;;;;;29.67;20.17;;;;;;;7.77;100.00;98514.88;10047191;28;20071;-72
2024/03/28 00:35:50;;;;;;;27.20;19.10;;;;;;;7.67;100.00;98508.06;10072096;28;20047;-72
2024/03/28 00:40:48;;;;;;;28.20;20.95;;;;;;;7.68;100.00;98506.13;10079764;28;20473;-73
2024/03/28 00:45:44;;;;;;;27.52;19.77;;;;;;;7.68;100.00;98506.94;10065289;28;20469;-73
2024/03/28 00:50:40;;;;;;;29.70;21.67;;;;;;;7.55;100.00;98508.16;10040026;28;20087;-71
2024/03/28 00:55:35;;;;;;;33.92;21.35;;;;;;;7.54;100.00;98509.28;10052165;28;20054;-70
2024/03/28 01:00:31;;;;;;;27.25;19.60;;;;;;;7.38;100.00;98493.78;10072166;28;20054;-71
2024/03/28 01:05:26;;;;;;;30.95;21.73;;;;;;;7.32;100.00;98462.53;10083166;28;20047;-71
2024/03/28 01:10:22;;;;;;;29.75;20.58;;;;;;;7.53;100.00;98461.47;10071877;28;20054;-72
2024/03/28 01:15:18;;;;;;;32.00;21.80;;;;;;;7.51;100.00;98455.59;10073961;28;20217;-73
2024/03/28 01:20:13;;;;;;;28.33;20.42;;;;;;;7.58;100.00;98448.41;10088195;28;20059;-72
2024/03/28 01:25:09;;;;;;;29.90;20.55;;;;;;;7.68;100.00;98447.09;10064922;28;20503;-73
2024/03/28 01:30:06;;;;;;;31.70;20.60;;;;;;;7.50;100.00;98440.44;10089750;28;20427;-73
2024/03/28 01:35:02;;;;;;;27.90;20.75;;;;;;;7.60;100.00;98434.47;10065430;28;20086;-71
2024/03/28 01:40:03;;;;;;;29.52;21.33;;;;;;;7.57;100.00;98418.84;10069786;28;20093;-71
2024/03/28 01:44:58;;;;;;;31.38;21.70;;;;;;;7.55;100.00;98432.00;10085805;28;20070;-72
2024/03/28 01:49:54;;;;;;;33.92;22.98;;;;;;;7.59;100.00;98428.22;10050774;28;20118;-72
2024/03/28 01:54:50;;;;;;;28.63;20.65;;;;;;;7.34;100.00;98433.09;10066955;28;20594;-71
2024/03/28 01:59:46;;;;;;;31.35;22.25;;;;;;;7.43;100.00;98424.75;10068675;28;20074;-71
2024/03/28 02:04:42;;;;;;;30.02;21.92;;;;;;;7.44;100.00;98409.22;10083718;28;20047;-70
2024/03/28 02:09:38;;;;;;;33.60;21.92;;;;;;;7.47;100.00;98392.19;10066938;28;20073;-71
2024/03/28 02:14:33;;;;;;;31.75;20.77;;;;;;;7.45;100.00;98395.28;10075467;28;20047;-71
2024/03/28 02:19:29;;;;;;;32.50;21.65;;;;;;;7.53;100.00;98396.22;10085895;28;20070;-72
2024/03/28 02:24:25;;;;;;;41.85;23.50;;;;;;;7.45;100.00;98392.56;10062784;28;20416;-72
2024/03/28 02:29:21;;;;;;;35.78;23.27;;;;;;;7.25;100.00;98402.56;10093120;28;20086;-72
2024/03/28 02:34:17;;;;;;;40.08;22.75;;;;;;;7.36;100.00;98390.03;10085404;28;20046;-72
2024/03/28 02:39:13;;;;;;;35.58;23.27;;;;;;;7.29;100.00;98380.94;10083960;28;20070;-72
2024/03/28 02:44:08;;;;;;;32.63;22.70;;;;;;;7.17;100.00;98357.31;10084685;28;20484;-72
2024/03/28 02:49:04;;;;;;;36.40;23.85;;;;;;;7.20;100.00;98364.00;10068215;28;20039;-73
2024/03/28 02:53:59;;;;;;;30.05;21.45;;;;;;;7.35;100.00;98371.34;10066702;28;20043;-72
2024/03/28 02:58:55;;;;;;;36.42;23.83;;;;;;;7.27;100.00;98375.03;10064067;28;20049;-73
2024/03/28 03:03:50;;;;;;;38.05;23.00;;;;;;;7.29;100.00;98370.84;10042970;28;20066;-71
2024/03/28 03:08:46;;;;;;;36.63;23.92;;;;;;;7.37;100.00;98355.47;10088772;28;20070;-72
2024/03/28 03:13:41;;;;;;;34.63;22.55;;;;;;;7.30;100.00;98339.78;10083856;28;20066;-73
2024/03/28 03:18:37;;;;;;;35.30;23.48;;;;;;;7.29;100.00;98353.75;10065374;28;20039;-72
2024/03/28 03:23:35;;;;;;;34.03;23.90;;;;;;;7.21;100.00;98369.06;10087311;28;20137;-72
2024/03/28 03:38:59;;;;;;;34.85;23.65;;;;;;;7.28;100.00;98380.13;10078736;28;20074;-72
2024/03/28 03:43:55;;;;;;;32.60;22.63;;;;;;;7.41;100.00;98399.06;10078765;28;20385;-72
2024/03/28 03:48:51;;;;;;;37.85;24.27;;;;;;;7.50;100.00;98386.06;10081207;28;20047;-73
2024/03/28 03:53:46;;;;;;;39.03;23.83;;;;;;;7.56;100.00;98376.47;10058052;28;20048;-72
2024/03/28 03:58:42;;;;;;;35.47;23.10;;;;;;;7.47;100.00;98386.75;10065812;28;20055;-71
2024/03/28 04:03:37;;;;;;;37.83;25.10;;;;;;;7.55;100.00;98362.09;10087928;28;20041;-73
2024/03/28 04:08:33;;;;;;;36.95;24.25;;;;;;;7.51;100.00;98355.78;10091306;28;20166;-71
2024/03/28 04:13:29;;;;;;;36.60;24.30;;;;;;;7.60;100.00;98347.44;10094183;28;20042;-71
2024/03/28 04:18:24;;;;;;;37.10;25.50;;;;;;;7.50;100.00;98335.19;10075457;28;20118;-70
2024/03/28 04:23:20;;;;;;;38.92;24.48;;;;;;;7.64;100.00;98337.44;10088076;28;20049;-71
2024/03/28 04:28:15;;;;;;;34.63;23.38;;;;;;;7.67;100.00;98336.69;10044378;28;20114;-73
2024/03/28 04:33:11;;;;;;;33.97;23.88;;;;;;;7.67;100.00;98331.25;10073583;28;20069;-72
2024/03/28 04:38:06;;;;;;;38.47;22.13;;;;;;;7.50;100.00;98323.53;10075718;28;20401;-72
2024/03/28 04:43:02;;;;;;;36.90;22.90;;;;;;;7.53;100.00;98311.94;10078376;28;20452;-72
2024/03/28 04:47:58;;;;;;;39.92;23.30;;;;;;;7.54;100.00;98310.78;10093445;28;20078;-72
2024/03/28 04:52:54;;;;;;;33.45;21.23;;;;;;;7.50;100.00;98304.50;10071574;28;20404;-72
2024/03/28 04:57:49;;;;;;;38.65;21.50;;;;;;;7.51;100.00;98295.19;10073202;28;20055;-72
2024/03/28 05:02:45;;;;;;;28.65;17.58;;;;;;;7.47;100.00;98294.31;10068554;28;20607;-72
2024/03/28 05:07:40;;;;;;;33.38;19.25;;;;;;;7.48;100.00;98280.38;10095807;28;20125;-72
2024/03/28 05:12:36;;;;;;;27.75;17.73;;;;;;;7.32;100.00;98264.09;10065192;28;20604;-70
2024/03/28 05:17:31;;;;;;;31.75;18.50;;;;;;;7.30;100.00;98258.22;10090345;28;20039;-70
2024/03/28 05:22:27;;;;;;;28.15;16.65;;;;;;;7.27;100.00;98241.88;10083940;28;20047;-72
2024/03/28 05:27:22;;;;;;;31.20;17.00;;;;;;;7.20;100.00;98231.63;10082588;28;20090;-72
2024/03/28 05:32:18;;;;;;;25.65;15.57;;;;;;;7.12;100.00;98241.53;10081041;28;20111;-72
2024/03/28 05:37:14;;;;;;;24.88;15.57;;;;;;;7.11;100.00;98222.88;10083413;28;20039;-71
2024/03/28 05:42:09;;;;;;;26.40;14.60;;;;;;;7.04;100.00;98233.59;10065876;28;20426;-71
2024/03/28 05:47:05;;;;;;;24.85;14.18;;;;;;;7.12;100.00;98232.59;10059958;28;20446;-71
2024/03/28 05:52:01;;;;;;;19.05;11.93;;;;;;;7.07;100.00;98211.16;10064955;28;20612;-70
2024/03/28 05:56:56;;;;;;;20.65;10.60;;;;;;;7.06;100.00;98210.38;10065869;28;20049;-72
2024/03/28 06:01:53;;;;;;;16.75;9.73;;;;;;;7.01;100.00;98196.25;10068113;28;20061;-70
2024/03/28 06:06:50;;;;;;;13.40;8.35;;;;;;;6.98;100.00;98186.09;10062685;28;20043;-70
2024/03/28 06:11:45;;;;;;;9.98;5.55;;;;;;;6.87;100.00;98189.41;10080403;28;20043;-72
2024/03/28 06:16:41;;;;;;;9.85;6.47;;;;;;;6.87;100.00;98170.38;10062695;28;20092;-71
2024/03/28 06:21:36;;;;;;;11.05;5.93;;;;;;;6.78;100.00;98172.50;10065276;28;20058;-72
2024/03/28 06:26:33;;;;;;;6.55;4.03;;;;;;;6.74;100.00;98179.78;10062078;28;20122;-72
2024/03/28 06:31:34;;;;;;;7.35;4.63;;;;;;;6.77;100.00;98184.50;10060918;28;20081;-72
2024/03/28 06:36:30;;;;;;;5.78;3.60;;;;;;;6.73;100.00;98170.84;10063062;28;20531;-71
2024/03/28 06:41:25;;;;;;;5.53;3.65;;;;;;;6.71;100.00;98167.69;10079665;28;20050;-72
2024/03/28 06:46:21;;;;;;;6.75;3.40;;;;;;;6.65;100.00;98157.47;10075316;28;20039;-72
2024/03/28 06:51:16;;;;;;;6.45;3.00;;;;;;;6.66;100.00;98167.16;10078165;28;20051;-71
2024/03/28 06:56:12;;;;;;;4.72;2.97;;;;;;;6.64;100.00;98166.75;10067279;28;20055;-71
2024/03/28 07:01:08;;;;;;;4.50;2.65;;;;;;;6.65;100.00;98165.59;10058683;28;20102;-70
2024/03/28 07:06:03;;;;;;;4.05;2.42;;;;;;;6.64;100.00;98178.41;10064810;28;20432;-69
2024/03/28 07:11:00;;;;;;;4.65;2.67;;;;;;;6.68;100.00;98167.59;10067854;28;20051;-69
2024/03/28 07:15:56;;;;;;;4.32;2.53;;;;;;;6.66;100.00;98180.75;10080873;28;20069;-69
2024/03/28 07:20:51;;;;;;;4.85;2.42;;;;;;;6.61;100.00;98183.75;10063345;28;20039;-70
2024/03/28 07:25:47;;;;;;;5.05;2.30;;;;;;;6.59;100.00;98175.97;10065627;28;20043;-69
2024/03/28 07:30:42;;;;;;;4.63;2.50;;;;;;;6.51;100.00;98172.28;10065059;28;20051;-69
2024/03/28 07:35:38;;;;;;;5.30;2.20;;;;;;;6.61;100.00;98178.31;10094009;28;20047;-71
2024/03/28 07:40:33;;;;;;;5.28;2.80;;;;;;;6.52;100.00;98178.50;10098044;28;20101;-70
2024/03/28 07:45:29;;;;;;;4.88;2.60;;;;;;;6.45;100.00;98176.44;10071926;28;20031;-70
2024/03/28 07:50:25;;;;;;;4.13;2.10;;;;;;;6.42;100.00;98170.91;10066958;28;20043;-69
2024/03/28 07:55:20;;;;;;;5.28;2.28;;;;;;;6.39;100.00;98161.53;10086118;28;20043;-70
2024/03/28 08:00:16;;;;;;;7.25;2.13;;;;;;;6.42;100.00;98155.41;10074872;28;20121;-70
2024/03/28 08:05:12;;;;;;;5.30;2.00;;;;;;;6.44;100.00;98163.97;10074216;28;20079;-70
2024/03/28 08:10:09;;;;;;;4.57;2.00;;;;;;;6.56;100.00;98154.16;10037789;28;20056;-70
2024/03/28 08:15:05;;;;;;;2.40;1.40;;;;;;;6.42;100.00;98166.25;10073749;28;20102;-70
2024/03/28 08:20:01;;;;;;;3.88;2.00;;;;;;;6.51;100.00;98164.13;10066141;28;20082;-70
2024/03/28 08:24:57;;;;;;;3.28;1.88;;;;;;;6.48;100.00;98159.44;10069029;28;20059;-71
2024/03/28 08:29:52;;;;;;;3.20;1.65;;;;;;;6.57;100.00;98155.72;10080172;28;20126;-71
2024/03/28 08:34:48;;;;;;;3.47;1.70;;;;;;;6.44;100.00;98174.06;10085209;28;20097;-70
2024/03/28 08:39:43;;;;;;;3.60;2.10;;;;;;;6.49;100.00;98199.00;10068044;28;20130;-70
2024/03/28 08:44:39;;;;;;;5.53;2.38;;;;;;;6.48;100.00;98183.06;10083392;28;20061;-70
2024/03/28 08:49:34;;;;;;;5.57;2.10;;;;;;;6.41;100.00;98189.13;10087781;28;20490;-70
2024/03/28 08:54:30;;;;;;;3.80;2.10;;;;;;;6.35;100.00;98187.81;10061594;28;20396;-70
2024/03/28 08:59:26;;;;;;;4.57;2.80;;;;;;;6.40;100.00;98189.47;10082174;28;20510;-70
2024/03/28 09:04:22;;;;;;;6.65;3.50;;;;;;;6.44;100.00;98196.53;10092399;28;20054;-70
2024/03/28 09:09:18;;;;;;;7.13;4.13;;;;;;;6.49;100.00;98203.63;10067667;28;20145;-70
2024/03/28 09:14:15;;;;;;;8.82;4.90;;;;;;;6.60;100.00;98203.91;10066440;28;20392;-71
2024/03/28 09:19:10;;;;;;;9.38;5.97;;;;;;;6.53;100.00;98216.16;10088711;28;20079;-70
2024/03/28 09:24:09;;;;;;;8.57;5.20;;;;;;;6.53;100.00;98227.00;10062524;28;20040;-70
2024/03/28 09:29:05;;;;;;;12.07;5.80;;;;;;;6.50;100.00;98211.44;10081645;28;20067;-70
2024/03/28 09:34:00;;;;;;;11.07;6.50;;;;;;;6.65;100.00;98217.97;10057993;28;20047;-70
2024/03/28 09:38:56;;;;;;;10.32;6.18;;;;;;;6.67;100.00;98236.66;10069249;28;20047;-70
2024/03/28 09:44:06;;;;;;;11.82;6.75;;;;;;;6.75;100.00;98243.81;10075704;28;20054;-69
2024/03/28 09:49:06;;;;;;;9.27;6.40;;;;;;;6.91;100.00;98236.41;10067151;28;20111;-70
2024/03/28 09:54:05;;;;;;;8.40;5.35;;;;;;;7.13;100.00;98242.34;10065093;28;20075;-71
2024/03/28 09:59:02;;;;;;;7.28;5.15;;;;;;;7.63;100.00;98242.59;10067914;28;20075;-71
2024/03/28 10:04:13;;;;;;;9.55;5.35;;;;;;;7.82;100.00;98260.81;10063493;28;20070;-71
2024/03/28 10:09:09;;;;;;;7.55;4.80;;;;;;;7.99;100.00;98293.03;10069274;28;20074;-70
2024/03/28 10:14:11;;;;;;;6.43;4.50;;;;;;;8.17;100.00;98313.22;10079276;28;20431;-71
2024/03/28 10:19:08;;;;;;;6.55;5.05;;;;;;;8.17;100.00;98329.56;10064652;28;20566;-70
2024/03/28 10:24:16;;;;;;;6.13;4.82;;;;;;;7.94;100.00;98328.72;10079182;28;20067;-74
2024/03/28 10:29:16;;;;;;;4.45;3.65;;;;;;;8.04;100.00;98325.41;10072878;28;20074;-70
2024/03/28 10:34:21;;;;;;;4.13;3.72;;;;;;;8.01;100.00;98302.41;10074935;28;20477;-70
2024/03/28 10:39:17;;;;;;;4.32;3.90;;;;;;;8.49;100.00;98304.84;10077006;28;20079;-70
2024/03/28 10:44:15;;;;;;;3.53;3.08;;;;;;;10.12;100.00;98309.53;10063438;28;20127;-70
2024/03/28 10:49:12;;;;;;;4.68;4.18;;;;;;;10.70;100.00;98310.91;10064660;28;20202;-70
2024/03/28 10:54:26;;;;;;;4.57;4.18;;;;;;;11.29;100.00;98321.91;10080099;28;20074;-71
2024/03/28 10:59:21;;;;;;;6.30;5.90;;;;;;;10.41;100.00;98315.31;10080984;28;20141;-70
2024/03/28 11:04:19;;;;;;;5.53;5.13;;;;;;;10.42;100.00;98333.25;10078045;28;20054;-69
2024/03/28 11:09:14;;;;;;;5.70;5.20;;;;;;;10.65;100.00;98322.16;10081373;28;20089;-70
2024/03/28 11:14:10;;;;;;;5.75;5.35;;;;;;;10.85;100.00;98322.75;10059062;28;20047;-71
2024/03/28 11:19:06;;;;;;;7.53;6.13;;;;;;;10.70;100.00;98325.34;10071624;28;20047;-71
2024/03/28 11:24:02;;;;;;;6.88;6.22;;;;;;;10.87;100.00;98340.34;10060220;28;20135;-70
2024/03/28 11:29:07;;;;;;;7.85;7.15;;;;;;;11.56;100.00;98350.59;10060162;28;20047;-71
2024/03/28 11:34:04;;;;;;;5.90;5.40;;;;;;;12.05;100.00;98347.75;10069406;28;20059;-71
2024/03/28 11:39:00;;;;;;;6.70;6.20;;;;;;;11.73;100.00;98332.72;10076401;28;20071;-71
2024/03/28 11:43:55;;;;;;;6.38;5.88;;;;;;;13.60;100.00;98339.28;10062641;28;20047;-71
2024/03/28 11:48:55;;;;;;;6.70;6.10;;;;;;;14.83;100.00;98334.81;10057649;28;20055;-72
2024/03/28 11:53:52;;;;;;;7.35;6.70;;;;;;;15.21;100.00;98332.13;10083344;28;20066;-71
2024/03/28 11:58:47;;;;;;;6.85;6.25;;;;;;;15.38;100.00;98355.19;10091786;28;20078;-71
2024/03/28 12:03:44;;;;;;;7.38;6.78;;;;;;;14.86;100.00;98378.00;10095035;28;20414;-72
2024/03/28 12:08:40;;;;;;;7.15;6.65;;;;;;;13.34;100.00;98381.66;10093954;28;20102;-71
2024/03/28 12:13:38;;;;;;;7.75;7.10;;;;;;;12.46;100.00;98400.31;10064056;28;20078;-71
2024/03/28 12:18:41;;;;;;;8.57;7.85;;;;;;;11.94;100.00;98399.72;10081786;28;20093;-72
2024/03/28 12:23:38;;;;;;;7.60;7.00;;;;;;;11.63;100.00;98414.75;10086255;28;20074;-71
2024/03/28 12:28:33;;;;;;;8.65;7.80;;;;;;;11.67;100.00;98415.56;10092001;28;20075;-72
2024/03/28 12:33:29;;;;;;;8.60;7.90;;;;;;;11.33;100.00;98413.78;10084334;28;20420;-72
2024/03/28 12:38:26;;;;;;;8.90;8.10;;;;;;;11.60;100.00;98416.28;10057648;28;20051;-73
2024/03/28 12:43:23;;;;;;;8.60;7.80;;;;;;;11.69;100.00;98415.97;10058210;28;20133;-70
2024/03/28 12:48:19;;;;;;;8.15;7.45;;;;;;;11.86;100.00;98407.09;10070041;28;20074;-70
2024/03/28 12:53:15;;;;;;;8.27;7.63;;;;;;;12.17;100.00;98396.72;10069025;28;20043;-70
2024/03/28 12:58:11;;;;;;;8.55;7.95;;;;;;;13.37;100.00;98396.59;10060595;28;20098;-70
2024/03/28 13:03:07;;;;;;;8.45;7.75;;;;;;;13.12;100.00;98397.34;10070919;28;20065;-70
2024/03/28 13:08:02;;;;;;;8.00;7.20;;;;;;;15.58;100.00;98383.72;10069117;28;20400;-72
2024/03/28 13:12:58;;;;;;;8.10;7.28;;;;;;;15.63;100.00;98399.00;10081849;28;20197;-70
2024/03/28 13:17:54;;;;;;;6.88;6.38;;;;;;;14.88;100.00;98397.66;10068869;28;20082;-70
2024/03/28 13:22:49;;;;;;;6.88;6.18;;;;;;;13.17;100.00;98402.41;10069966;28;20408;-69
2024/03/28 13:27:45;;;;;;;7.22;6.55;;;;;;;12.38;100.00;98415.97;10076526;28;20507;-71
2024/03/28 13:32:40;;;;;;;7.70;7.10;;;;;;;12.12;100.00;98408.03;10071334;28;20113;-69
2024/03/28 13:37:36;;;;;;;8.80;6.60;;;;;;;11.91;100.00;98409.50;10098865;28;20043;-70
2024/03/28 13:42:32;;;;;;;6.68;6.18;;;;;;;11.72;100.00;98428.88;10068093;28;20118;-69
2024/03/28 13:47:27;;;;;;;7.05;6.45;;;;;;;11.24;100.00;98426.19;10075132;28;20047;-71
2024/03/28 13:52:23;;;;;;;6.30;5.80;;;;;;;10.18;100.00;98455.47;10105812;28;20042;-70
2024/03/28 13:57:18;;;;;;;6.75;6.15;;;;;;;10.17;100.00;98443.00;10057492;28;20043;-69
2024/03/28 14:02:14;;;;;;;6.57;6.00;;;;;;;10.30;100.00;98458.03;10039767;28;20047;-69
2024/03/28 14:07:09;;;;;;;7.15;6.55;;;;;;;9.13;100.00;98514.25;10049566;28;20039;-70
2024/03/28 14:12:05;;;;;;;5.20;4.80;;;;;;;7.87;100.00;98554.38;10089187;28;20121;-70
2024/03/28 14:17:01;;;;;;;4.63;4.22;;;;;;;7.64;100.00;98568.59;10085008;28;20046;-70
2024/03/28 14:21:56;;;;;;;4.57;4.18;;;;;;;7.57;100.00;98565.72;10072009;28;20139;-69
2024/03/28 14:26:53;;;;;;;4.10;3.70;;;;;;;7.57;100.00;98587.47;10073185;28;20126;-70
2024/03/28 14:31:48;;;;;;;3.58;3.28;;;;;;;7.44;100.00;98588.66;10090769;28;20043;-70
2024/03/28 14:36:44;;;;;;;3.30;3.00;;;;;;;7.40;100.00;98595.94;10088490;28;20126;-71
2024/03/28 14:41:39;;;;;;;4.22;3.83;;;;;;;7.37;100.00;98606.34;10076045;28;20438;-70
2024/03/28 14:46:35;;;;;;;4.63;3.60;;;;;;;7.34;100.00;98615.22;10085623;28;20548;-71
2024/03/28 14:51:30;;;;;;;6.70;3.50;;;;;;;7.30;100.00;98617.03;10071989;28;20427;-70
2024/03/28 14:56:26;;;;;;;3.75;3.20;;;;;;;7.25;100.00;98628.19;10073016;28;20118;-71
2024/03/28 15:01:21;;;;;;;4.30;3.90;;;;;;;7.19;100.00;98651.28;10074966;28;20470;-70
2024/03/28 15:06:17;;;;;;;5.40;3.90;;;;;;;7.09;100.00;98646.34;10077346;28;20726;-70
2024/03/28 15:11:13;;;;;;;3.75;3.45;;;;;;;7.04;100.00;98657.47;10074488;28;20047;-70
2024/03/28 15:16:12;;;;;;;3.63;3.33;;;;;;;6.93;100.00;98662.59;10070046;28;20135;-72
2024/03/28 15:21:13;;;;;;;4.07;3.40;;;;;;;6.88;100.00;98665.53;10071716;28;20050;-70
2024/03/28 15:26:09;;;;;;;3.73;3.23;;;;;;;6.73;100.00;98675.22;10072987;28;20672;-70
2024/03/28 15:31:04;;;;;;;3.40;3.00;;;;;;;6.63;100.00;98683.81;10089613;28;20046;-71
2024/03/28 15:36:00;;;;;;;3.45;3.15;;;;;;;6.57;100.00;98683.25;10076786;28;20166;-70
2024/03/28 15:40:57;;;;;;;3.22;2.53;;;;;;;6.54;100.00;98702.91;10083073;28;20447;-70
2024/03/28 15:45:53;;;;;;;3.72;2.50;;;;;;;6.58;100.00;98711.97;10077536;28;20055;-70
2024/03/28 15:50:50;;;;;;;2.97;2.45;;;;;;;6.55;100.00;98703.72;10092540;28;20181;-70
2024/03/28 15:55:45;;;;;;;3.05;2.15;;;;;;;6.43;100.00;98705.31;10093563;28;20531;-72
2024/03/28 16:00:44;;;;;;;3.33;2.40;;;;;;;6.36;100.00;98705.09;10077031;28;20047;-70
2024/03/28 16:05:40;;;;;;;3.15;1.70;;;;;;;6.40;100.00;98688.91;10076897;28;20082;-69
2024/03/28 16:10:35;;;;;;;3.50;1.98;;;;;;;6.41;100.00;98696.72;10076710;28;20583;-70
2024/03/28 16:15:31;;;;;;;3.85;2.28;;;;;;;6.45;100.00;98697.63;10076536;28;20047;-70
2024/03/28 16:20:27;;;;;;;3.58;2.28;;;;;;;6.47;100.00;98710.84;10080346;28;20523;-70
2024/03/28 16:25:22;;;;;;;3.65;2.30;;;;;;;6.39;100.00;98707.13;10096994;28;20042;-70
2024/03/28 16:30:18;;;;;;;3.13;2.08;;;;;;;6.46;100.00;98742.63;10096830;28;20058;-70
2024/03/28 16:35:13;;;;;;;3.47;2.40;;;;;;;6.38;100.00;98750.88;10094049;28;20091;-71
2024/03/28 16:40:09;;;;;;;3.13;2.08;;;;;;;6.36;100.00;98770.22;10075782;28;20058;-70
2024/03/28 16:45:05;;;;;;;6.07;2.20;;;;;;;6.38;100.00;98767.94;10094884;28;20570;-70
2024/03/28 16:50:00;;;;;;;2.88;2.20;;;;;;;6.43;100.00;98785.94;10093876;28;20074;-69
2024/03/28 16:54:56;;;;;;;4.30;2.30;;;;;;;6.41;100.00;98789.00;10077204;28;20130;-70
2024/03/28 16:59:52;;;;;;;3.83;2.35;;;;;;;6.39;100.00;98785.84;10077593;28;20411;-70
2024/03/28 17:04:47;;;;;;;3.78;2.33;;;;;;;6.41;100.00;98786.28;10094669;28;20456;-70
2024/03/28 17:09:43;;;;;;;5.13;2.70;;;;;;;6.40;100.00;98824.63;10073034;28;20055;-70
2024/03/28 17:14:41;;;;;;;5.25;2.55;;;;;;;6.36;100.00;98829.94;10090056;28;20050;-70
2024/03/28 17:19:36;;;;;;;7.18;2.90;;;;;;;6.38;100.00;98827.66;10089129;28;20129;-70
2024/03/28 17:24:33;;;;;;;3.90;2.40;;;;;;;6.34;100.00;98843.06;10091483;28;20122;-70
2024/03/28 17:29:28;;;;;;;5.35;2.92;;;;;;;6.36;100.00;98840.81;10073652;28;20070;-71
2024/03/28 17:34:24;;;;;;;6.32;2.75;;;;;;;6.37;100.00;98847.03;10075008;28;20491;-70
2024/03/28 17:39:19;;;;;;;3.97;2.75;;;;;;;6.40;100.00;98849.84;10072495;28;20043;-70
2024/03/28 17:44:15;;;;;;;6.32;3.10;;;;;;;6.38;100.00;98854.81;10089341;28;20067;-69
2024/03/28 17:49:11;;;;;;;5.28;3.13;;;;;;;6.41;100.00;98842.50;10093622;28;20422;-70
2024/03/28 17:54:07;;;;;;;7.68;3.30;;;;;;;6.39;100.00;98864.56;10078329;28;20730;-71
2024/03/28 17:59:03;;;;;;;6.10;3.50;;;;;;;6.44;100.00;98860.84;10075448;28;20038;-70
2024/03/28 18:03:58;;;;;;;4.72;3.30;;;;;;;6.44;100.00;98874.41;10080486;28;20050;-70
2024/03/28 18:08:54;;;;;;;8.27;3.50;;;;;;;6.47;100.00;98885.38;10051064;28;20185;-70
2024/03/28 18:13:51;;;;;;;6.47;3.92;;;;;;;6.45;100.00;98893.09;10060503;28;20051;-70
2024/03/28 18:18:46;;;;;;;7.45;4.47;;;;;;;6.53;100.00;98910.41;10084668;28;20133;-70
2024/03/28 18:23:42;;;;;;;6.88;4.18;;;;;;;6.48;100.00;98930.44;10049962;28;20075;-70
2024/03/28 18:28:37;;;;;;;8.45;3.72;;;;;;;6.51;100.00;98945.25;10084256;28;20057;-70
2024/03/28 18:33:33;;;;;;;6.20;4.32;;;;;;;6.50;100.00;98949.88;10049965;28;20142;-71
2024/03/28 18:38:29;;;;;;;7.80;4.50;;;;;;;6.45;100.00;98952.00;10058261;28;20054;-70
2024/03/28 18:43:24;;;;;;;4.78;3.65;;;;;;;6.38;100.00;98963.41;10070841;28;20218;-70
2024/03/28 18:48:22;;;;;;;7.13;4.43;;;;;;;6.31;100.00;98968.56;10068286;28;20050;-70
2024/03/28 18:53:18;;;;;;;5.88;4.53;;;;;;;6.37;100.00;98972.69;10069324;28;20039;-70
2024/03/28 18:58:13;;;;;;;6.60;4.57;;;;;;;6.29;100.00;98985.19;10070667;28;20085;-69
2024/03/28 19:03:09;;;;;;;7.35;4.97;;;;;;;6.29;100.00;98992.56;10086037;28;20047;-70
2024/03/28 19:08:05;;;;;;;8.13;4.88;;;;;;;6.33;100.00;99004.31;10071480;28;20133;-70
2024/03/28 19:13:03;;;;;;;11.00;4.97;;;;;;;6.32;100.00;99013.59;10069017;28;20035;-70
2024/03/28 19:17:58;;;;;;;9.27;5.70;;;;;;;6.34;100.00;99016.78;10072511;28;20522;-70
2024/03/28 19:22:54;;;;;;;7.57;5.13;;;;;;;6.23;100.00;99012.88;10066666;28;20066;-70
2024/03/28 19:27:51;;;;;;;8.93;5.40;;;;;;;6.28;100.00;99023.53;10085265;28;20094;-70
2024/03/28 19:32:47;;;;;;;7.85;4.57;;;;;;;6.38;100.00;99028.53;10085815;28;20071;-70
2024/03/28 19:37:50;;;;;;;8.68;5.22;;;;;;;6.39;100.00;99034.78;10070143;28;20051;-70
2024/03/28 19:42:46;;;;;;;7.60;4.97;;;;;;;6.42;100.00;99039.56;10084048;28;20435;-70
2024/03/28 19:47:42;;;;;;;6.90;4.90;;;;;;;6.42;100.00;99037.63;10071865;28;20068;-69
2024/03/28 19:52:38;;;;;;;7.57;5.55;;;;;;;6.30;100.00;99032.91;10053773;28;20035;-71
2024/03/28 19:57:34;;;;;;;10.02;4.88;;;;;;;6.28;100.00;99034.38;10068674;28;20070;-70
2024/03/28 20:02:30;;;;;;;6.28;4.72;;;;;;;6.19;100.00;99052.63;10085451;28;20504;-71
2024/03/28 20:07:26;;;;;;;12.38;5.47;;;;;;;6.15;100.00;99051.69;10069706;28;20043;-70
2024/03/28 20:12:22;;;;;;;5.75;4.47;;;;;;;6.16;100.00;99048.66;10067821;28;20043;-70
2024/03/28 20:17:18;;;;;;;7.95;4.53;;;;;;;6.09;100.00;99060.03;10056952;28;20104;-70
2024/03/28 20:22:14;;;;;;;9.65;5.22;;;;;;;6.09;100.00;99070.09;10060272;28;20082;-70
2024/03/28 20:27:09;;;;;;;7.18;4.93;;;;;;;6.05;100.00;99067.22;10075488;28;20486;-70
2024/03/28 20:32:05;;;;;;;7.50;4.93;;;;;;;6.04;100.00;99087.38;10093137;28;20804;-70
2024/03/28 20:37:00;;;;;;;7.30;5.30;;;;;;;6.00;100.00;99099.97;10093920;28;20082;-70
2024/03/28 20:41:56;;;;;;;8.65;4.75;;;;;;;5.93;100.00;99105.09;10117918;28;20135;-71
2024/03/28 20:47:05;;;;;;;6.78;5.07;;;;;;;5.96;100.00;99111.81;10076688;28;20122;-71
2024/03/28 20:52:02;;;;;;;4.93;4.35;;;;;;;6.02;100.00;99124.88;10072800;28;20039;-71
2024/03/28 20:56:57;;;;;;;9.75;5.43;;;;;;;6.03;100.00;99126.47;10094728;28;20472;-70
2024/03/28 21:01:53;;;;;;;5.82;5.18;;;;;;;6.00;100.00;99126.31;10077750;28;20046;-70
2024/03/28 21:11:53;;;;;;;5.70;5.10;;;;;;;5.89;100.00;99132.09;10093446;28;20073;-71
2024/03/28 21:16:50;;;;;;;7.35;5.03;;;;;;;5.84;100.00;99134.16;10076693;28;20051;-70
2024/03/28 21:21:45;;;;;;;6.32;5.50;;;;;;;5.92;100.00;99146.94;10099587;28;20071;-71
2024/03/28 21:26:41;;;;;;;8.43;5.65;;;;;;;5.88;100.00;99151.41;10092572;28;20122;-71
2024/03/28 21:31:37;;;;;;;6.03;5.30;;;;;;;5.93;100.00;99161.28;10073217;28;20047;-71
2024/03/28 21:36:32;;;;;;;6.70;5.38;;;;;;;5.94;100.00;99166.41;10095006;28;20049;-71
2024/03/28 21:41:29;;;;;;;6.30;5.38;;;;;;;6.01;100.00;99177.56;10076385;28;20042;-71
2024/03/28 21:46:26;;;;;;;6.65;5.13;;;;;;;6.03;100.00;99175.28;10076929;28;20070;-70
2024/03/28 21:51:21;;;;;;;7.53;5.10;;;;;;;6.10;100.00;99191.88;10091526;28;20059;-70
2024/03/28 21:56:19;;;;;;;6.15;4.80;;;;;;;6.20;100.00;99206.22;10092667;28;20062;-70
2024/03/28 22:01:15;;;;;;;7.07;5.18;;;;;;;6.22;100.00;99204.78;10076013;28;20047;-70
2024/03/28 22:06:10;;;;;;;7.53;5.35;;;;;;;6.14;100.00;99213.72;10070464;28;20047;-70
2024/03/28 22:11:09;;;;;;;6.03;4.93;;;;;;;6.24;100.00;99235.09;10074446;28;20047;-72
2024/03/28 22:16:06;;;;;;;7.47;5.45;;;;;;;6.31;100.00;99234.56;10071525;28;20074;-71
2024/03/28 22:21:02;;;;;;;6.45;5.07;;;;;;;6.36;100.00;99237.13;10071149;28;20097;-70
2024/03/28 22:25:57;;;;;;;6.40;4.90;;;;;;;6.42;100.00;99241.25;10077368;28;20074;-70
2024/03/28 22:30:54;;;;;;;8.32;5.45;;;;;;;6.42;100.00;99252.09;10077838;28;20145;-71
2024/03/28 22:35:54;;;;;;;8.73;4.85;;;;;;;6.47;100.00;99254.63;10073071;28;20098;-70
2024/03/28 22:40:50;;;;;;;8.13;5.40;;;;;;;6.40;100.00;99254.34;10093993;28;20078;-71
2024/03/28 22:45:47;;;;;;;6.65;5.93;;;;;;;6.46;100.00;99266.63;10067061;28;20055;-71
2024/03/28 22:50:42;;;;;;;6.30;5.68;;;;;;;6.49;100.00;99268.69;10097931;28;20086;-71
2024/03/28 22:55:38;;;;;;;9.75;5.25;;;;;;;6.49;100.00;99267.88;10072585;28;20050;-70
2024/03/28 23:00:34;;;;;;;8.55;4.80;;;;;;;6.50;100.00;99273.00;10088551;28;20045;-70